Time;durP1;ratioP1;P1;durP2;ratioP2;P2;SDS_P1;SDS_P2;PMS_P1;PMS_P2;Temp;Humidity;BMP_temperature;BMP_pressure;BME280_temperature;BME280_humidity;BME280_pressure;Samples;Min_cycle;Max_cycle;Signal;HPM_P1;HPM_P2
2022/04/03 00:00:38;;;;;;;;;15.25;13.50;;;;;7.63;40.92;102067.44;2449455;28;45254;-80
2022/04/03 00:01:48;;;;;;;;;15.50;15.00;;;;;7.64;41.12;102071.81;2443517;27;44606;-80
2022/04/03 00:03:00;;;;;;;;;15.25;15.00;;;;;7.61;41.11;102061.34;2444361;28;46532;-80
2022/04/03 00:04:10;;;;;;;;;13.50;13.50;;;;;7.59;41.46;102060.47;2450993;27;45316;-80
2022/04/03 00:05:21;;;;;;;;;16.25;12.00;;;;;7.61;41.03;102065.69;2450488;27;45452;-80
2022/04/03 00:06:31;;;;;;;;;16.75;16.25;;;;;7.62;41.26;102067.44;2450793;28;45340;-80
2022/04/03 00:07:42;;;;;;;;;17.50;14.75;;;;;7.60;40.99;102059.59;2441814;27;45529;-80
2022/04/03 00:08:53;;;;;;;;;20.75;17.25;;;;;7.62;41.52;102068.31;2440842;28;45266;-80
2022/04/03 00:10:04;;;;;;;;;15.00;13.00;;;;;7.61;41.11;102069.19;2440837;28;46316;-80
2022/04/03 00:11:15;;;;;;;;;18.25;14.50;;;;;7.61;41.08;102066.56;2445241;28;45423;-80
2022/04/03 00:12:26;;;;;;;;;15.50;14.00;;;;;7.62;41.13;102062.22;2441018;27;45694;-80
2022/04/03 00:13:37;;;;;;;;;17.00;15.25;;;;;7.60;41.50;102070.06;2447738;28;45343;-80
2022/04/03 00:14:47;;;;;;;;;15.75;15.50;;;;;7.59;41.55;102073.53;2447668;27;45953;-81
2022/04/03 00:15:58;;;;;;;;;12.75;10.75;;;;;7.60;41.35;102070.06;2446005;27;45297;-80
2022/04/03 00:17:08;;;;;;;;;16.50;14.50;;;;;7.61;41.02;102065.69;2445559;27;45352;-80
2022/04/03 00:18:18;;;;;;;;;18.00;16.25;;;;;7.61;41.28;102071.78;2445548;27;45389;-80
2022/04/03 00:19:29;;;;;;;;;15.50;14.00;;;;;7.58;40.97;102065.72;2440742;28;45364;-79
2022/04/03 00:20:41;;;;;;;;;14.25;13.50;;;;;7.60;41.52;102067.47;2440925;28;45223;-79
2022/04/03 00:21:52;;;;;;;;;19.00;16.00;;;;;7.58;40.76;102069.16;2440763;28;46214;-79
2022/04/03 00:23:02;;;;;;;;;13.50;13.50;;;;;7.56;40.89;102070.91;2442428;28;45217;-79
2022/04/03 00:24:13;;;;;;;;;14.25;14.25;;;;;7.53;41.17;102066.53;2442384;28;45469;-79
2022/04/03 00:25:23;;;;;;;;;14.25;13.75;;;;;7.53;41.40;102065.69;2444634;28;44732;-79
2022/04/03 00:26:33;;;;;;;;;20.50;18.00;;;;;7.52;40.76;102069.19;2452400;27;45491;-79
2022/04/03 00:27:45;;;;;;;;;19.00;15.75;;;;;7.51;41.10;102070.91;2443108;27;44686;-79
2022/04/03 00:28:55;;;;;;;;;17.75;14.50;;;;;7.50;41.21;102070.91;2441647;28;46299;-79
2022/04/03 00:30:07;;;;;;;;;21.00;17.00;;;;;7.49;41.08;102069.16;2442080;28;45251;-79
2022/04/03 00:31:18;;;;;;;;;17.50;14.00;;;;;7.48;41.52;102065.66;2442453;28;45354;-79
2022/04/03 00:32:28;;;;;;;;;18.25;17.50;;;;;7.49;41.27;102066.53;2442397;28;45405;-79
2022/04/03 00:33:39;;;;;;;;;20.75;17.00;;;;;7.48;41.43;102070.91;2442322;28;46064;-79
2022/04/03 00:34:50;;;;;;;;;19.00;16.75;;;;;7.51;41.05;102076.16;2442406;28;45240;-79
2022/04/03 00:36:00;;;;;;;;;21.75;17.75;;;;;7.49;41.50;102072.66;2449337;28;45255;-80
2022/04/03 00:37:10;;;;;;;;;19.25;17.00;;;;;7.49;41.02;102079.63;2445137;27;45413;-80
2022/04/03 00:38:21;;;;;;;;;16.50;15.50;;;;;7.46;41.44;102069.19;2442466;28;46276;-80
2022/04/03 00:39:31;;;;;;;;;16.75;15.25;;;;;7.46;40.90;102077.03;2442298;28;45339;-80
2022/04/03 00:40:44;;;;;;;;;18.00;16.25;;;;;7.47;41.45;102078.75;2442336;28;45394;-80
2022/04/03 00:41:55;;;;;;;;;18.50;15.25;;;;;7.43;40.96;102070.03;2442570;28;44693;-80
2022/04/03 00:43:06;;;;;;;;;20.50;18.00;;;;;7.39;41.14;102073.50;2442337;28;46684;-80
2022/04/03 00:44:17;;;;;;;;;18.25;14.25;;;;;7.38;40.84;102071.78;2442697;28;44587;-80
2022/04/03 00:45:27;;;;;;;;;19.50;18.00;;;;;7.37;41.02;102073.50;2444266;28;45361;-80
2022/04/03 00:46:40;;;;;;;;;18.50;16.50;;;;;7.32;41.15;102068.28;2447210;27;45278;-80
2022/04/03 00:47:53;;;;;;;;;19.75;15.75;;;;;7.31;41.23;102070.88;2442303;28;46809;-80
2022/04/03 00:49:04;;;;;;;;;17.00;15.50;;;;;7.30;41.76;102067.41;2442582;28;45222;-80
2022/04/03 00:50:15;;;;;;;;;18.00;15.00;;;;;7.28;41.02;102070.88;2442105;28;45256;-80
2022/04/03 00:51:29;;;;;;;;;18.25;17.00;;;;;7.29;41.76;102078.72;2442401;28;45175;-80
2022/04/03 00:52:40;;;;;;;;;18.75;17.00;;;;;7.26;41.71;102068.25;2443303;28;46165;-80
2022/04/03 00:53:50;;;;;;;;;17.25;16.25;;;;;7.27;41.58;102074.34;2452140;27;45239;-80
2022/04/03 00:55:00;;;;;;;;;18.00;15.50;;;;;7.25;41.73;102069.13;2444476;27;45521;-80
2022/04/03 00:56:11;;;;;;;;;18.50;17.75;;;;;7.24;41.63;102070.00;2442563;28;45420;-81
2022/04/03 00:57:23;;;;;;;;;18.75;17.00;;;;;7.25;42.06;102073.47;2441933;28;46326;-82
2022/04/03 00:58:35;;;;;;;;;17.25;16.00;;;;;7.24;41.63;102076.94;2441540;28;45205;-82
2022/04/03 00:59:47;;;;;;;;;18.00;16.25;;;;;7.25;41.99;102070.88;2441653;28;45303;-83
2022/04/03 01:00:57;;;;;;;;;18.00;16.00;;;;;7.22;41.98;102070.84;2442590;28;45483;-83
2022/04/03 01:02:08;;;;;;;;;19.25;18.75;;;;;7.22;41.71;102069.13;2442273;28;46153;-83
2022/04/03 01:03:19;;;;;;;;;17.75;17.00;;;;;7.22;42.34;102073.47;2443643;28;44810;-85
2022/04/03 01:04:31;;;;;;;;;16.25;15.25;;;;;7.19;41.78;102079.56;2452171;27;45398;-84
2022/04/03 01:05:41;;;;;;;;;23.25;17.25;;;;;7.19;41.65;102072.59;2442643;27;45433;-82
2022/04/03 01:06:52;;;;;;;;;17.25;17.25;;;;;7.19;41.98;102071.72;2446831;28;47386;-82
2022/04/03 01:08:02;;;;;;;;;17.00;16.00;;;;;7.15;42.18;102068.22;2449944;28;45176;-82
2022/04/03 01:09:12;;;;;;;;;19.25;17.00;;;;;7.20;41.67;102073.47;2441953;28;45243;-82
2022/04/03 01:10:23;;;;;;;;;15.75;15.00;;;;;7.18;41.81;102081.31;2443673;28;45230;-81
2022/04/03 01:11:34;;;;;;;;;14.75;13.75;;;;;7.18;41.99;102070.00;2447947;27;45212;-82
2022/04/03 01:12:45;;;;;;;;;18.50;18.50;;;;;7.18;42.06;102063.03;2441967;28;44707;-81
2022/04/03 01:13:55;;;;;;;;;16.50;16.25;;;;;7.18;42.15;102068.25;2444010;28;47854;-81
2022/04/03 01:15:07;;;;;;;;;16.00;15.00;;;;;7.20;42.19;102070.84;2445094;28;44600;-81
2022/04/03 01:16:18;;;;;;;;;14.00;14.00;;;;;7.17;42.06;102074.34;2449873;27;45358;-81
2022/04/03 01:17:28;;;;;;;;;18.50;15.75;;;;;7.16;41.92;102063.88;2442349;28;45330;-81
2022/04/03 01:18:39;;;;;;;;;16.50;16.50;;;;;7.14;42.39;102071.69;2442074;28;45434;-81
2022/04/03 01:19:49;;;;;;;;;18.00;18.00;;;;;7.13;42.28;102069.09;2441188;28;44866;-80
2022/04/03 01:21:00;;;;;;;;;17.50;17.00;;;;;7.13;42.29;102062.13;2443855;28;45449;-81
2022/04/03 01:22:10;;;;;;;;;17.00;14.75;;;;;7.17;42.31;102076.06;2442094;28;45387;-81
2022/04/03 01:23:21;;;;;;;;;16.00;13.00;;;;;7.14;42.24;102070.81;2442277;28;45467;-81
2022/04/03 01:24:33;;;;;;;;;14.25;13.00;;;;;7.12;42.01;102073.44;2444999;28;45316;-81
2022/04/03 01:25:43;;;;;;;;;17.25;16.00;;;;;7.11;42.15;102071.72;2447419;28;46531;-81
2022/04/03 01:26:53;;;;;;;;;16.00;15.00;;;;;7.09;42.24;102063.84;2451270;28;45329;-81
2022/04/03 01:28:04;;;;;;;;;16.00;16.00;;;;;7.11;42.44;102065.59;2444972;28;45323;-81
2022/04/03 01:29:18;;;;;;;;;21.50;17.25;;;;;7.09;42.22;102068.19;2443822;28;44568;-82
2022/04/03 01:30:28;;;;;;;;;23.50;17.75;;;;;7.07;43.03;102064.72;2451394;28;45445;-82
2022/04/03 01:31:39;;;;;;;;;18.25;16.50;;;;;7.10;42.55;102064.72;2443387;27;44748;-82
2022/04/03 01:32:49;;;;;;;;;16.75;13.75;;;;;7.08;42.45;102063.84;2442314;27;46629;-83
2022/04/03 01:33:59;;;;;;;;;19.50;18.25;;;;;7.09;42.59;102062.97;2441098;28;45173;-83
2022/04/03 01:35:10;;;;;;;;;14.75;14.75;;;;;7.11;42.02;102068.22;2441652;28;46436;-85
2022/04/03 01:36:21;;;;;;;;;18.50;15.50;;;;;7.11;42.78;102065.59;2442059;28;44611;-85
2022/04/03 01:37:32;;;;;;;;;18.25;18.25;;;;;7.11;43.02;102076.94;2441957;28;45538;-84
2022/04/03 01:38:42;;;;;;;;;18.50;16.50;;;;;7.08;42.52;102063.84;2441855;28;45275;-81
2022/04/03 01:39:52;;;;;;;;;16.75;12.75;;;;;7.08;42.81;102067.34;2442022;28;45544;-81
2022/04/03 01:41:03;;;;;;;;;15.75;15.75;;;;;7.11;42.70;102057.75;2442520;28;45232;-81
2022/04/03 01:42:13;;;;;;;;;21.00;17.00;;;;;7.06;42.78;102063.81;2448479;27;45220;-81
2022/04/03 01:43:23;;;;;;;;;17.50;17.50;;;;;7.11;42.62;102069.09;2441991;28;46438;-81
2022/04/03 01:44:34;;;;;;;;;19.75;19.00;;;;;7.11;43.00;102076.06;2441811;28;46096;-81
2022/04/03 01:45:44;;;;;;;;;18.25;17.00;;;;;7.11;42.97;102071.72;2441992;28;45165;-81
2022/04/03 01:46:55;;;;;;;;;15.50;13.75;;;;;7.11;42.59;102068.22;2441958;28;45347;-82
2022/04/03 01:48:07;;;;;;;;;20.75;19.25;;;;;7.10;42.50;102067.34;2445085;28;45232;-82
2022/04/03 01:49:17;;;;;;;;;23.50;18.50;;;;;7.12;42.88;102072.56;2450057;28;45523;-81
2022/04/03 01:50:28;;;;;;;;;21.50;16.50;;;;;7.11;43.15;102069.09;2441964;28;45302;-81
2022/04/03 01:51:38;;;;;;;;;18.00;17.00;;;;;7.11;42.64;102073.44;2441729;28;46332;-81
2022/04/03 01:52:49;;;;;;;;;23.00;17.00;;;;;7.11;42.52;102073.44;2445973;28;45360;-80
2022/04/03 01:54:00;;;;;;;;;18.25;15.50;;;;;7.08;42.66;102067.34;2441610;28;46453;-80
2022/04/03 01:55:10;;;;;;;;;15.00;14.00;;;;;7.08;42.77;102066.47;2449953;28;45522;-80
2022/04/03 01:56:20;;;;;;;;;16.00;16.00;;;;;7.05;42.67;102066.44;2450720;28;45255;-81
2022/04/03 01:57:31;;;;;;;;;18.25;17.25;;;;;7.05;43.11;102066.44;2442207;27;45414;-81
2022/04/03 01:58:41;;;;;;;;;14.00;12.50;;;;;7.05;43.15;102067.34;2441838;28;46285;-80
2022/04/03 01:59:52;;;;;;;;;14.50;14.00;;;;;7.04;42.77;102064.69;2441988;28;44635;-80
2022/04/03 02:01:04;;;;;;;;;16.25;16.25;;;;;7.02;43.19;102059.47;2441829;28;46468;-84
2022/04/03 02:02:14;;;;;;;;;20.50;18.00;;;;;6.98;42.87;102071.66;2444444;28;45188;-84
2022/04/03 02:03:25;;;;;;;;;19.00;18.75;;;;;6.98;43.19;102069.06;2447169;27;45398;-84
2022/04/03 02:04:35;;;;;;;;;11.75;9.75;;;;;6.96;43.58;102062.06;2441806;28;44559;-80
2022/04/03 02:05:45;;;;;;;;;14.50;14.25;;;;;6.93;43.18;102062.94;2441672;28;45319;-80
2022/04/03 02:06:57;;;;;;;;;16.25;15.50;;;;;6.93;43.17;102068.16;2441833;28;45292;-80
2022/04/03 02:08:07;;;;;;;;;21.00;15.50;;;;;6.93;43.35;102068.16;2441649;28;45475;-81
2022/04/03 02:09:18;;;;;;;;;17.00;16.00;;;;;6.95;43.33;102071.66;2441736;28;45410;-81
2022/04/03 02:10:29;;;;;;;;;22.25;18.00;;;;;6.92;43.50;102066.41;2443825;28;45426;-81
2022/04/03 02:11:39;;;;;;;;;13.50;13.50;;;;;6.92;43.42;102065.53;2446274;27;45304;-81
2022/04/03 02:12:49;;;;;;;;;16.50;14.75;;;;;6.92;43.76;102060.28;2448042;28;45431;-80
2022/04/03 02:14:00;;;;;;;;;18.50;16.25;;;;;6.93;43.21;102062.06;2451561;27;45256;-80
2022/04/03 02:15:11;;;;;;;;;12.00;12.00;;;;;6.94;43.63;102062.06;2447384;27;46905;-80
2022/04/03 02:16:23;;;;;;;;;14.00;11.75;;;;;6.91;43.29;102062.06;2456316;27;45389;-80
2022/04/03 02:17:34;;;;;;;;;16.75;15.00;;;;;6.90;43.69;102060.31;2441683;28;46319;-80
2022/04/03 02:18:44;;;;;;;;;17.25;16.25;;;;;6.91;43.71;102062.06;2441749;28;44647;-80
2022/04/03 02:19:54;;;;;;;;;17.25;15.00;;;;;6.92;43.39;102062.91;2445025;28;45341;-80
2022/04/03 02:21:05;;;;;;;;;16.75;14.75;;;;;6.90;43.43;102059.41;2441992;28;45224;-80
2022/04/03 02:22:15;;;;;;;;;18.50;16.50;;;;;6.92;43.57;102063.78;2441833;28;45220;-84
2022/04/03 02:23:25;;;;;;;;;14.75;14.75;;;;;6.91;43.66;102064.69;2440989;28;45263;-84
2022/04/03 02:24:36;;;;;;;;;16.75;16.00;;;;;6.89;43.32;102065.53;2440644;28;45468;-82
2022/04/03 02:25:49;;;;;;;;;17.50;14.50;;;;;6.89;43.69;102066.38;2442365;28;45140;-83
2022/04/03 02:27:00;;;;;;;;;14.75;13.50;;;;;6.90;43.29;102067.25;2450997;28;45407;-83
2022/04/03 02:28:11;;;;;;;;;14.75;13.75;;;;;6.91;43.43;102061.19;2443389;27;44723;-81
2022/04/03 02:29:22;;;;;;;;;19.00;17.50;;;;;6.89;43.66;102071.59;2443310;28;45560;-82
2022/04/03 02:30:32;;;;;;;;;16.50;16.50;;;;;6.92;43.98;102068.13;2450823;27;45203;-82
2022/04/03 02:31:43;;;;;;;;;17.75;14.75;;;;;6.91;43.85;102064.69;2441593;28;46380;-86
2022/04/03 02:32:53;;;;;;;;;14.50;14.50;;;;;6.93;44.00;102076.00;2440846;28;45247;-86
2022/04/03 02:34:05;;;;;;;;;17.25;13.75;;;;;6.88;43.37;102069.88;2440952;28;46091;-85
2022/04/03 02:35:15;;;;;;;;;19.00;16.00;;;;;6.88;43.85;102067.28;2440822;28;45149;-85
2022/04/03 02:36:26;;;;;;;;;18.50;15.25;;;;;6.88;44.03;102064.66;2450592;28;45258;-83
2022/04/03 02:37:38;;;;;;;;;15.00;14.75;;;;;6.89;43.71;102060.31;2445489;27;45247;-81
2022/04/03 02:38:48;;;;;;;;;16.00;16.00;;;;;6.90;43.54;102056.81;2441307;28;46320;-81
2022/04/03 02:39:59;;;;;;;;;16.50;15.75;;;;;6.92;43.82;102068.13;2448433;28;44787;-82
2022/04/03 02:41:09;;;;;;;;;14.50;14.50;;;;;6.89;43.55;102062.91;2442745;28;45416;-81
2022/04/03 02:42:20;;;;;;;;;19.75;16.00;;;;;6.88;43.47;102067.28;2442037;28;45298;-80
2022/04/03 02:43:30;;;;;;;;;17.00;16.25;;;;;6.88;43.80;102069.00;2441423;28;45455;-80
2022/04/03 02:44:41;;;;;;;;;14.50;14.50;;;;;6.87;43.76;102070.72;2441661;28;45256;-81
2022/04/03 02:45:52;;;;;;;;;17.75;17.50;;;;;6.88;43.58;102063.78;2440933;28;45402;-81
2022/04/03 02:47:02;;;;;;;;;15.25;14.50;;;;;6.88;44.15;102066.38;2441524;28;45181;-81
2022/04/03 02:48:13;;;;;;;;;15.75;13.75;;;;;6.84;43.93;102061.13;2441418;28;45275;-81
2022/04/03 02:49:23;;;;;;;;;16.25;15.00;;;;;6.87;44.02;102073.34;2441844;28;45369;-82
2022/04/03 02:50:34;;;;;;;;;14.25;14.25;;;;;6.85;43.81;102070.75;2445258;28;47471;-80
2022/04/03 02:51:45;;;;;;;;;15.00;15.00;;;;;6.85;44.01;102064.63;2449497;28;45213;-80
2022/04/03 02:52:55;;;;;;;;;15.75;14.00;;;;;6.85;44.09;102067.25;2441683;28;45334;-81
2022/04/03 02:54:06;;;;;;;;;20.25;16.75;;;;;6.83;43.89;102067.25;2441243;28;45435;-81
2022/04/03 02:55:18;;;;;;;;;16.00;13.75;;;;;6.85;43.68;102072.47;2441445;28;45620;-82
2022/04/03 02:56:28;;;;;;;;;18.50;15.75;;;;;6.80;43.79;102075.06;2441431;28;45314;-86
2022/04/03 02:57:39;;;;;;;;;14.75;14.00;;;;;6.80;44.16;102068.97;2441231;28;45626;-85
2022/04/03 02:58:49;;;;;;;;;16.25;15.00;;;;;6.80;44.12;102071.56;2441478;28;45164;-86
2022/04/03 02:59:59;;;;;;;;;17.00;16.00;;;;;6.80;43.77;102075.06;2447811;28;46263;-83
2022/04/03 03:01:10;;;;;;;;;18.50;15.00;;;;;6.79;43.72;102065.47;2443206;28;45218;-84
2022/04/03 03:02:20;;;;;;;;;16.00;12.75;;;;;6.77;43.87;102072.44;2436715;28;48487;-84
2022/04/03 03:03:31;;;;;;;;;16.25;15.00;;;;;6.78;43.94;102073.31;2448069;28;45354;-85
2022/04/03 03:04:42;;;;;;;;;17.50;15.25;;;;;6.74;44.11;102072.44;2441313;28;45225;-84
2022/04/03 03:05:52;;;;;;;;;18.25;15.00;;;;;6.75;44.30;102069.81;2441223;28;45188;-85
2022/04/03 03:07:11;;;;;;;;;17.50;16.00;;;;;6.79;44.28;102075.06;2441208;28;45227;-85
2022/04/03 03:08:21;;;;;;;;;15.00;13.75;;;;;6.78;44.14;102073.31;2441557;28;44715;-84
2022/04/03 03:09:32;;;;;;;;;11.50;10.25;;;;;6.77;44.55;102077.66;2443715;28;47078;-84
2022/04/03 03:10:43;;;;;;;;;17.00;14.50;;;;;6.74;44.38;102073.28;2441868;28;45192;-84
2022/04/03 03:11:53;;;;;;;;;13.50;13.50;;;;;6.72;44.14;102066.31;2440518;28;46879;-82
2022/04/03 03:13:03;;;;;;;;;18.75;16.00;;;;;6.74;44.20;102077.66;2443310;28;44796;-82
2022/04/03 03:14:14;;;;;;;;;16.00;15.75;;;;;6.75;44.26;102084.63;2445534;27;45262;-82
2022/04/03 03:15:24;;;;;;;;;20.25;16.00;;;;;6.75;44.36;102074.16;2441322;28;45168;-81
2022/04/03 03:16:35;;;;;;;;;17.75;16.00;;;;;6.75;44.29;102082.88;2455797;27;46108;-81
2022/04/03 03:17:46;;;;;;;;;17.75;14.75;;;;;6.73;43.96;102079.41;2437362;28;45492;-80
2022/04/03 03:18:56;;;;;;;;;19.75;16.50;;;;;6.72;44.48;102082.88;2442445;28;46281;-81
2022/04/03 03:20:07;;;;;;;;;21.00;16.75;;;;;6.72;44.51;102084.59;2443653;27;44713;-81
2022/04/03 03:21:17;;;;;;;;;15.50;15.50;;;;;6.68;44.55;102082.84;2441066;28;46765;-81
2022/04/03 03:22:28;;;;;;;;;18.00;15.50;;;;;6.69;44.63;102082.00;2441445;28;45287;-82
2022/04/03 03:23:40;;;;;;;;;17.50;15.75;;;;;6.67;44.32;102079.34;2440134;28;46879;-81
2022/04/03 03:24:50;;;;;;;;;18.00;17.25;;;;;6.71;44.77;102091.59;2440677;28;44748;-82
2022/04/03 03:26:01;;;;;;;;;17.00;15.00;;;;;6.69;44.60;102080.22;2441078;28;45479;-81
2022/04/03 03:27:11;;;;;;;;;17.75;15.00;;;;;6.70;44.32;102088.94;2441309;28;44664;-81
2022/04/03 03:28:21;;;;;;;;;17.75;16.75;;;;;6.69;45.04;102085.47;2441151;28;45279;-81
2022/04/03 03:29:32;;;;;;;;;16.75;16.75;;;;;6.72;44.86;102085.47;2445017;28;45176;-78
2022/04/03 03:30:43;;;;;;;;;16.00;14.75;;;;;6.72;44.42;102082.88;2440513;28;46273;-78
2022/04/03 03:31:53;;;;;;;;;19.00;16.00;;;;;6.68;44.82;102086.34;2441355;28;45255;-79
2022/04/03 03:33:04;;;;;;;;;21.50;16.75;;;;;6.69;44.92;102090.69;2450550;28;46103;-80
2022/04/03 03:34:14;;;;;;;;;19.00;16.00;;;;;6.68;45.06;102094.19;2450952;28;45359;-80
2022/04/03 03:35:25;;;;;;;;;18.00;16.00;;;;;6.66;44.96;102093.31;2450779;27;45313;-79
2022/04/03 03:36:35;;;;;;;;;18.75;14.75;;;;;6.67;44.90;102095.03;2445984;27;45211;-79
2022/04/03 03:37:45;;;;;;;;;16.00;13.00;;;;;6.66;45.00;102095.91;2440513;28;48160;-79
2022/04/03 03:38:56;;;;;;;;;19.75;15.75;;;;;6.67;45.11;102096.78;2440272;28;45295;-79
2022/04/03 03:40:11;;;;;;;;;13.75;13.75;;;;;6.67;44.81;102084.59;2445950;28;45844;-81
2022/04/03 03:41:21;;;;;;;;;17.50;16.00;;;;;6.68;45.07;102095.91;2450202;28;45302;-81
2022/04/03 03:42:32;;;;;;;;;12.25;11.50;;;;;6.65;44.75;102094.16;2450414;28;46346;-81
2022/04/03 03:43:43;;;;;;;;;17.75;16.50;;;;;6.64;44.59;102089.81;2457410;27;45362;-80
2022/04/03 03:44:54;;;;;;;;;15.75;13.50;;;;;6.63;44.82;102090.66;2450307;28;46423;-79
2022/04/03 03:46:04;;;;;;;;;17.25;15.75;;;;;6.65;45.05;102096.78;2443338;27;44611;-79
2022/04/03 03:47:14;;;;;;;;;17.00;16.00;;;;;6.62;45.12;102083.69;2444936;28;45418;-79
2022/04/03 03:48:25;;;;;;;;;17.50;15.50;;;;;6.66;44.97;102100.25;2450059;27;45240;-79
2022/04/03 03:49:36;;;;;;;;;20.00;17.00;;;;;6.63;45.17;102093.28;2441087;28;45301;-79
2022/04/03 03:50:46;;;;;;;;;16.75;15.25;;;;;6.63;44.84;102096.78;2441035;28;45232;-79
2022/04/03 03:51:57;;;;;;;;;16.50;14.50;;;;;6.64;45.14;102098.50;2440982;28;45497;-79
2022/04/03 03:53:07;;;;;;;;;18.00;16.00;;;;;6.63;44.61;102096.78;2441332;28;44723;-79
2022/04/03 03:54:18;;;;;;;;;15.75;15.25;;;;;6.61;45.13;102092.41;2440617;28;45647;-79
2022/04/03 03:55:28;;;;;;;;;17.50;16.00;;;;;6.62;44.95;102104.59;2441190;28;45248;-79
2022/04/03 03:56:38;;;;;;;;;16.00;15.75;;;;;6.60;44.95;102101.09;2440909;28;46413;-79
2022/04/03 03:57:49;;;;;;;;;20.50;16.50;;;;;6.59;44.92;102094.13;2441882;28;45290;-79
2022/04/03 03:59:00;;;;;;;;;16.00;15.00;;;;;6.58;44.99;102097.59;2450534;27;45358;-79
2022/04/03 04:00:11;;;;;;;;;16.00;14.00;;;;;6.58;45.10;102098.47;2442891;28;45432;-79
2022/04/03 04:01:22;;;;;;;;;16.25;14.25;;;;;6.58;44.93;102102.81;2442550;28;45363;-79
2022/04/03 04:02:32;;;;;;;;;14.50;14.00;;;;;6.57;44.98;102093.25;2441998;28;45266;-80
2022/04/03 04:03:43;;;;;;;;;18.50;16.25;;;;;6.61;44.98;102098.50;2441742;28;47144;-80
2022/04/03 04:04:53;;;;;;;;;21.00;17.50;;;;;6.60;45.21;102103.69;2442260;28;44772;-82
2022/04/03 04:06:05;;;;;;;;;17.25;17.25;;;;;6.60;45.27;102095.88;2442570;28;45228;-83
2022/04/03 04:07:15;;;;;;;;;18.50;15.25;;;;;6.59;45.23;102094.13;2442798;28;45227;-83
2022/04/03 04:08:26;;;;;;;;;19.00;15.00;;;;;6.59;45.12;102088.91;2446579;28;47149;-83
2022/04/03 04:09:37;;;;;;;;;15.00;15.00;;;;;6.61;45.18;102097.63;2442383;28;45392;-83
2022/04/03 04:10:47;;;;;;;;;16.00;15.25;;;;;6.59;45.23;102094.97;2444508;28;45332;-83
2022/04/03 04:11:58;;;;;;;;;18.00;14.75;;;;;6.60;44.81;102094.13;2442819;28;45238;-83
2022/04/03 04:13:08;;;;;;;;;17.00;16.50;;;;;6.60;45.08;102095.88;2445544;28;45607;-83
2022/04/03 04:14:18;;;;;;;;;18.50;16.25;;;;;6.58;44.98;102095.88;2447284;27;45314;-82
2022/04/03 04:15:30;;;;;;;;;19.50;16.25;;;;;6.60;44.84;102103.69;2442552;28;45416;-82
2022/04/03 04:16:42;;;;;;;;;15.75;14.50;;;;;6.61;45.49;102101.13;2459591;27;45487;-82
2022/04/03 04:17:57;;;;;;;;;14.50;13.50;;;;;6.62;45.19;102100.22;2446287;27;45361;-79
2022/04/03 04:19:07;;;;;;;;;14.75;14.75;;;;;6.57;45.21;102101.09;2450167;27;45448;-79
2022/04/03 04:20:19;;;;;;;;;20.75;16.50;;;;;6.56;45.27;102099.34;2442229;28;46519;-83
2022/04/03 04:21:29;;;;;;;;;14.00;14.00;;;;;6.55;45.23;102097.56;2451796;28;45247;-83
2022/04/03 04:22:41;;;;;;;;;15.25;12.75;;;;;6.53;45.39;102102.81;2446604;28;45322;-82
2022/04/03 04:23:51;;;;;;;;;10.75;10.75;;;;;6.54;45.16;102104.56;2452230;28;45283;-77
2022/04/03 04:25:01;;;;;;;;;16.75;15.00;;;;;6.52;45.47;102107.16;2452148;28;46272;-77
2022/04/03 04:26:13;;;;;;;;;15.25;13.25;;;;;6.51;45.02;102112.38;2452463;28;45265;-77
2022/04/03 04:27:24;;;;;;;;;15.00;15.00;;;;;6.50;45.22;102108.00;2451052;28;48515;-78
2022/04/03 04:28:36;;;;;;;;;3.00;3.00;;;;;6.50;45.45;102108.88;2449190;28;45238;-78
2022/04/03 04:29:47;;;;;;;;;12.75;12.75;;;;;6.47;45.22;102106.25;2441780;28;48555;-88
2022/04/03 04:30:57;;;;;;;;;12.00;12.00;;;;;6.47;45.12;102108.00;2442057;28;44709;-84
2022/04/03 04:32:08;;;;;;;;;13.75;13.00;;;;;6.45;45.13;102105.34;2442255;28;45283;-84
2022/04/03 04:33:19;;;;;;;;;17.75;15.25;;;;;6.46;45.14;102117.56;2441880;28;45203;-84
2022/04/03 04:34:29;;;;;;;;;14.75;14.75;;;;;6.45;45.36;102117.53;2444337;28;47972;-83
2022/04/03 04:35:39;;;;;;;;;16.00;15.00;;;;;6.45;45.53;102120.16;2441624;28;45477;-82
2022/04/03 04:36:50;;;;;;;;;14.25;13.75;;;;;6.45;45.33;102126.25;2441908;28;45964;-82
2022/04/03 04:38:01;;;;;;;;;15.00;13.75;;;;;6.44;45.32;102119.31;2446435;28;45476;-83
2022/04/03 04:39:12;;;;;;;;;14.75;13.00;;;;;6.44;45.20;102119.31;2446279;28;46805;-85
2022/04/03 04:40:22;;;;;;;;;16.75;13.75;;;;;6.41;45.37;102117.53;2443827;28;45234;-84
2022/04/03 04:41:32;;;;;;;;;14.25;13.50;;;;;6.41;45.56;102116.66;2452280;27;46388;-84
2022/04/03 04:42:43;;;;;;;;;17.00;14.75;;;;;6.43;45.39;102122.75;2452370;27;45144;-84
2022/04/03 04:43:53;;;;;;;;;15.50;11.25;;;;;6.43;45.48;102128.00;2452169;27;45357;-82
2022/04/03 04:45:07;;;;;;;;;14.25;13.50;;;;;6.41;45.34;102121.88;2451563;28;45157;-81
2022/04/03 04:46:17;;;;;;;;;12.50;8.25;;;;;6.39;45.58;102123.63;2451774;28;45562;-81
2022/04/03 04:47:27;;;;;;;;;15.00;13.75;;;;;6.36;45.49;102120.97;2451882;27;45441;-81
2022/04/03 04:48:38;;;;;;;;;13.50;13.00;;;;;6.33;45.25;102123.56;2442581;28;45325;-81
2022/04/03 04:49:48;;;;;;;;;18.00;14.00;;;;;6.32;45.48;102120.09;2442481;28;45147;-81
2022/04/03 04:50:58;;;;;;;;;15.00;13.00;;;;;6.29;45.39;102123.56;2442174;28;46533;-79
2022/04/03 04:52:09;;;;;;;;;15.00;12.75;;;;;6.29;45.52;102122.69;2442654;28;45378;-80
2022/04/03 04:53:19;;;;;;;;;16.00;14.00;;;;;6.29;45.55;102126.16;2449271;28;45580;-80
2022/04/03 04:54:30;;;;;;;;;12.50;11.75;;;;;6.28;45.67;102132.25;2450560;27;45299;-80
2022/04/03 04:55:41;;;;;;;;;13.75;11.50;;;;;6.30;45.38;102138.34;2442547;28;46436;-79
2022/04/03 04:56:51;;;;;;;;;17.00;14.50;;;;;6.26;45.33;102123.53;2443211;28;45216;-78
2022/04/03 04:58:01;;;;;;;;;14.00;12.00;;;;;6.26;45.69;102133.09;2452018;28;45239;-78
2022/04/03 04:59:12;;;;;;;;;10.00;10.00;;;;;6.26;45.49;102133.97;2444752;28;44601;-81
2022/04/03 05:00:24;;;;;;;;;15.25;11.50;;;;;6.27;45.84;102133.09;2445139;28;48166;-82
2022/04/03 05:01:35;;;;;;;;;16.50;14.00;;;;;6.24;45.68;102135.69;2444683;28;45281;-83
2022/04/03 05:02:46;;;;;;;;;15.00;13.50;;;;;6.22;46.01;102136.53;2451550;27;45252;-81
2022/04/03 05:03:56;;;;;;;;;15.50;14.50;;;;;6.24;45.71;102130.47;2442629;28;45471;-81
2022/04/03 05:05:07;;;;;;;;;14.25;14.25;;;;;6.20;45.65;102133.91;2441489;28;45361;-82
2022/04/03 05:06:17;;;;;;;;;16.00;14.00;;;;;6.18;45.67;102126.06;2442451;28;44661;-81
2022/04/03 05:07:28;;;;;;;;;14.25;13.25;;;;;6.17;45.77;102139.13;2441301;28;46944;-81
2022/04/03 05:08:38;;;;;;;;;13.25;12.00;;;;;6.18;45.69;102141.72;2445366;28;45338;-81
2022/04/03 05:09:51;;;;;;;;;11.25;11.25;;;;;6.15;45.95;102140.84;2447629;27;45412;-80
2022/04/03 05:11:01;;;;;;;;;14.75;12.25;;;;;6.15;46.11;102144.31;2449111;28;45370;-81
2022/04/03 05:12:12;;;;;;;;;17.25;14.00;;;;;6.11;45.29;102145.16;2443675;28;46992;-81
2022/04/03 05:13:25;;;;;;;;;13.50;12.00;;;;;6.10;45.71;102147.75;2446806;28;45288;-81
2022/04/03 05:14:37;;;;;;;;;11.25;9.75;;;;;6.06;46.31;102146.81;2446915;27;46310;-81
2022/04/03 05:15:47;;;;;;;;;11.50;10.25;;;;;6.04;46.52;102141.59;2443484;27;44803;-81
2022/04/03 05:16:58;;;;;;;;;13.50;13.25;;;;;6.05;46.14;102147.69;2461356;27;45458;-82
2022/04/03 05:18:08;;;;;;;;;13.25;10.75;;;;;6.01;45.73;102144.16;2449855;27;45268;-82
2022/04/03 05:19:19;;;;;;;;;12.00;11.00;;;;;6.00;45.82;102142.41;2451069;28;47166;-81
2022/04/03 05:20:29;;;;;;;;;14.50;13.00;;;;;6.00;46.13;102144.16;2451397;28;45433;-81
2022/04/03 05:21:41;;;;;;;;;13.75;13.75;;;;;5.98;46.33;102144.13;2451890;28;45414;-81
2022/04/03 05:22:51;;;;;;;;;12.25;11.25;;;;;5.99;46.20;102145.00;2445344;27;45239;-81
2022/04/03 05:24:02;;;;;;;;;14.00;13.00;;;;;6.00;46.08;102147.63;2441775;28;46233;-83
2022/04/03 05:25:12;;;;;;;;;15.00;14.25;;;;;5.97;45.77;102143.25;2442269;28;45173;-83